YHU weather

Montréal / Saint-Hubert Airport
Montréal, Quebec, Canada

Public forecast

Using degrees Celsius for public forecast. Weather courtesy of forecast.io.

METAR (pilot weather report)

Retrieved 2019/05/22 16:00 UTC (33 minutes ago):

CYHU 221600Z AUTO 07005KT 360V100 9SM CLR 16/05 A3027 RMK SLP251

TAF (pilot weather forecast)

Retrieved 2019/05/22 12:42 UTC (4 hours ago):

TAF CYHU 221138Z 2212/2312 VRB03KT P6SM SKC FM222000 24006KT P6SM FEW040 SCT230 BECMG 2220/2222 20006KT FM230000 17006KT P6SM BKN170 FM230600 VRB03KT P6SM BKN110 FM230900 09008KT P6SM BKN080 RMK FCST BASED ON AUTO OBS. NXT FCST BY 221800Z